Aviation Digital Data Service (ADDS)

Output produced by METARs form (1751 UTC 28 May 2015)
found at http://www.aviationweather.gov/adds/metars/
 
KBMI 281748Z 2818/2918 12012KT P6SM SCT035 BKN250 
     FM290600 17008KT P6SM BKN250 
     FM291500 19012KT P6SM BKN035